Time;durP1;ratioP1;P1;durP2;ratioP2;P2;SDS_P1;SDS_P2;PMS_P1;PMS_P2;Temp;Humidity;BMP_temperature;BMP_pressure;BME280_temperature;BME280_humidity;BME280_pressure;Samples;Min_cycle;Max_cycle;Signal;HPM_P1;HPM_P2
2022/01/01 00:02:03;;;;;;;32.63;16.80;;;14.10;69.20;;;;;;4998529;28;20741;-76
2022/01/01 00:04:29;;;;;;;32.03;15.82;;;14.00;69.20;;;;;;4998020;28;20394;-73
2022/01/01 00:06:54;;;;;;;33.67;16.37;;;14.00;70.20;;;;;;4997743;28;20393;-74
2022/01/01 00:09:20;;;;;;;36.97;15.83;;;14.10;68.90;;;;;;4998088;28;20465;-73
2022/01/01 00:11:45;;;;;;;33.60;15.10;;;14.00;70.00;;;;;;4998959;28;20386;-73
2022/01/01 00:14:11;;;;;;;32.33;14.67;;;14.00;70.20;;;;;;4998041;28;20402;-75
2022/01/01 00:16:37;;;;;;;36.20;15.20;;;14.00;69.50;;;;;;4999637;28;20424;-73
2022/01/01 00:19:02;;;;;;;33.90;16.50;;;13.90;71.40;;;;;;4998174;28;20424;-74
2022/01/01 00:21:28;;;;;;;34.95;16.80;;;13.90;71.90;;;;;;4997922;28;20871;-74
2022/01/01 00:23:54;;;;;;;40.33;19.05;;;13.90;71.70;;;;;;5002317;28;20401;-72
2022/01/01 00:26:21;;;;;;;37.20;15.55;;;13.90;71.20;;;;;;5007681;28;20665;-71
2022/01/01 00:28:47;;;;;;;42.25;16.65;;;14.00;71.60;;;;;;5009811;28;20386;-71
2022/01/01 00:31:13;;;;;;;31.75;15.65;;;13.90;72.00;;;;;;5010324;28;20394;-72
2022/01/01 00:33:38;;;;;;;31.98;14.90;;;14.00;72.40;;;;;;5003958;28;20508;-72
2022/01/01 00:36:04;;;;;;;35.45;16.10;;;13.90;73.00;;;;;;4999868;28;20397;-72
2022/01/01 00:38:30;;;;;;;27.83;14.55;;;13.90;74.30;;;;;;4999064;28;20390;-74
2022/01/01 00:40:56;;;;;;;29.58;14.90;;;13.90;73.80;;;;;;5001087;28;20448;-71
2022/01/01 00:43:21;;;;;;;27.05;14.25;;;14.00;73.30;;;;;;5007222;28;20413;-72
2022/01/01 00:45:47;;;;;;;36.13;14.48;;;14.00;74.10;;;;;;5003205;28;20477;-72
2022/01/01 00:48:13;;;;;;;29.75;13.15;;;13.90;75.00;;;;;;5005177;28;20465;-71
2022/01/01 00:50:39;;;;;;;33.45;14.35;;;13.90;76.30;;;;;;5007202;28;20450;-70
2022/01/01 00:53:05;;;;;;;32.80;14.07;;;13.90;76.10;;;;;;5004818;28;20408;-70
2022/01/01 00:55:30;;;;;;;28.13;14.43;;;13.90;76.30;;;;;;5003087;28;20378;-73
2022/01/01 00:57:56;;;;;;;30.70;14.40;;;13.90;76.40;;;;;;4998860;28;20450;-73
2022/01/01 01:00:22;;;;;;;33.53;14.87;;;14.00;76.10;;;;;;4997321;28;20462;-71
2022/01/01 01:02:47;;;;;;;28.60;14.50;;;13.90;76.00;;;;;;4996422;28;20410;-71
2022/01/01 01:05:13;;;;;;;31.20;15.03;;;13.90;76.50;;;;;;4994579;28;20397;-71
2022/01/01 01:07:38;;;;;;;37.23;15.80;;;13.90;76.00;;;;;;4996373;28;20952;-71
2022/01/01 01:10:05;;;;;;;33.80;15.50;;;14.00;76.60;;;;;;4998389;28;20876;-74
2022/01/01 01:12:41;;;;;;;36.95;16.08;;;14.00;76.30;;;;;;4998053;28;20394;-72
2022/01/01 01:15:10;;;;;;;30.47;15.77;;;13.90;76.90;;;;;;4994945;28;20430;-72
2022/01/01 01:17:36;;;;;;;32.22;15.63;;;13.90;76.90;;;;;;4995850;28;20386;-71
2022/01/01 01:20:02;;;;;;;35.27;16.83;;;13.90;77.30;;;;;;4995409;28;20466;-72
2022/01/01 01:22:29;;;;;;;41.30;19.08;;;13.90;78.00;;;;;;4995795;28;20513;-72
2022/01/01 01:24:55;;;;;;;37.85;19.50;;;13.90;78.60;;;;;;4995120;28;20399;-72
2022/01/01 01:27:20;;;;;;;39.58;21.45;;;13.80;79.00;;;;;;4994669;28;20893;-72
2022/01/01 01:29:46;;;;;;;44.60;21.80;;;13.90;78.90;;;;;;4995024;28;20397;-72
2022/01/01 01:32:12;;;;;;;45.30;24.63;;;13.90;79.10;;;;;;4993909;28;20840;-73
2022/01/01 01:34:38;;;;;;;49.27;25.70;;;13.90;78.70;;;;;;4995296;28;20480;-72
2022/01/01 01:37:03;;;;;;;50.60;26.83;;;13.80;78.60;;;;;;4994366;28;20470;-74
2022/01/01 01:39:29;;;;;;;48.37;25.87;;;13.80;79.40;;;;;;4995626;28;20445;-72
2022/01/01 01:41:55;;;;;;;49.00;27.00;;;13.90;78.50;;;;;;4998610;28;20410;-74
2022/01/01 01:44:33;;;;;;;55.33;27.93;;;13.80;78.30;;;;;;4999684;28;20399;-71
2022/01/01 01:47:02;;;;;;;58.20;28.67;;;13.80;78.50;;;;;;4998803;28;20414;-72
2022/01/01 01:49:28;;;;;;;50.03;26.52;;;13.80;78.30;;;;;;4998345;28;20394;-71
2022/01/01 01:51:55;;;;;;;50.58;26.23;;;13.80;78.00;;;;;;4997736;28;20478;-70
2022/01/01 01:54:21;;;;;;;58.15;26.67;;;13.80;76.60;;;;;;4998439;28;20452;-71
2022/01/01 01:56:47;;;;;;;54.95;25.73;;;13.80;77.60;;;;;;4998940;28;20390;-71
2022/01/01 01:59:14;;;;;;;49.40;26.20;;;13.80;76.60;;;;;;4998125;28;20398;-71
2022/01/01 02:01:40;;;;;;;56.50;25.85;;;13.80;76.40;;;;;;4998792;28;20450;-71
2022/01/01 02:04:06;;;;;;;51.33;25.83;;;13.80;76.50;;;;;;4997613;28;20442;-73
2022/01/01 02:06:33;;;;;;;53.28;25.38;;;13.80;75.40;;;;;;4997821;28;20410;-72
2022/01/01 02:08:59;;;;;;;47.97;25.75;;;13.80;75.20;;;;;;4999864;28;20455;-72
2022/01/01 02:11:26;;;;;;;46.88;24.00;;;13.80;74.80;;;;;;4999346;28;20391;-72
2022/01/01 02:18:53;;;;;;;47.60;25.95;;;13.70;75.40;;;;;;4993283;28;20415;-72
2022/01/01 02:21:20;;;;;;;53.95;27.00;;;13.80;74.90;;;;;;4993426;28;20417;-72
2022/01/01 02:23:56;;;;;;;53.83;29.00;;;13.80;73.20;;;;;;4994103;28;20481;-71
2022/01/01 02:26:28;;;;;;;61.67;31.77;;;13.80;73.90;;;;;;4995827;28;20453;-72
2022/01/01 02:28:54;;;;;;;67.45;32.72;;;13.80;72.70;;;;;;4994313;28;20397;-71
2022/01/01 02:31:20;;;;;;;66.07;33.43;;;13.80;73.40;;;;;;4993611;28;20386;-72
2022/01/01 02:33:45;;;;;;;72.63;35.17;;;13.80;72.30;;;;;;5003561;28;20486;-72
2022/01/01 02:36:11;;;;;;;66.00;35.55;;;13.80;72.10;;;;;;4999215;28;20398;-73
2022/01/01 02:38:37;;;;;;;66.68;34.22;;;13.80;71.50;;;;;;4998477;28;20394;-72
2022/01/01 02:41:03;;;;;;;62.70;32.90;;;13.70;72.40;;;;;;4992666;28;20394;-72
2022/01/01 02:43:31;;;;;;;55.20;31.00;;;13.70;71.70;;;;;;4993107;28;20386;-73
2022/01/01 02:45:57;;;;;;;63.58;30.15;;;13.80;72.00;;;;;;4992880;28;20432;-72
2022/01/01 02:48:23;;;;;;;59.40;30.05;;;13.70;71.20;;;;;;4991329;28;20736;-72
2022/01/01 02:50:51;;;;;;;50.67;27.67;;;13.80;70.40;;;;;;4992670;28;20702;-72
2022/01/01 02:53:17;;;;;;;61.97;28.00;;;13.80;69.10;;;;;;4992640;28;20426;-72
2022/01/01 02:55:44;;;;;;;53.35;26.25;;;13.80;67.80;;;;;;4992704;28;20390;-71
2022/01/01 02:58:10;;;;;;;52.50;27.63;;;13.80;67.10;;;;;;4991962;28;20493;-72
2022/01/01 03:00:37;;;;;;;47.57;25.77;;;13.80;67.20;;;;;;4992600;28;20395;-71
2022/01/01 03:03:03;;;;;;;54.95;25.80;;;13.80;66.50;;;;;;4992517;28;20410;-72
2022/01/01 03:05:30;;;;;;;48.93;24.17;;;13.80;65.80;;;;;;4992252;28;20959;-73
2022/01/01 03:07:55;;;;;;;54.92;23.90;;;13.80;65.40;;;;;;4992245;28;20390;-71
2022/01/01 03:10:21;;;;;;;47.40;22.80;;;13.90;64.80;;;;;;4992448;28;20405;-72
2022/01/01 03:12:47;;;;;;;43.40;21.90;;;13.90;65.20;;;;;;4992320;28;20401;-71
2022/01/01 03:15:12;;;;;;;53.20;21.65;;;13.90;63.90;;;;;;4992175;28;20503;-71
2022/01/01 03:17:38;;;;;;;47.23;21.03;;;13.90;63.30;;;;;;4992130;28;20402;-72
2022/01/01 03:20:05;;;;;;;44.60;20.30;;;13.90;62.90;;;;;;4992166;28;20393;-73
2022/01/01 03:22:31;;;;;;;43.83;19.87;;;13.90;63.80;;;;;;4991839;28;20406;-72
2022/01/01 03:24:56;;;;;;;43.07;20.03;;;13.80;64.20;;;;;;4991783;28;20466;-71
2022/01/01 03:27:22;;;;;;;37.47;19.07;;;13.80;64.90;;;;;;4992260;28;20791;-72
2022/01/01 03:29:47;;;;;;;36.70;16.40;;;13.80;64.30;;;;;;4991708;28;20396;-72
2022/01/01 03:32:13;;;;;;;35.47;16.10;;;13.90;62.80;;;;;;4990643;28;20394;-73
2022/01/01 03:34:39;;;;;;;30.60;14.35;;;13.90;62.10;;;;;;4991529;28;20391;-71
2022/01/01 03:37:04;;;;;;;32.25;13.40;;;13.90;62.80;;;;;;4991713;28;20402;-72
2022/01/01 03:39:30;;;;;;;27.73;13.13;;;13.80;63.20;;;;;;4991762;28;20390;-72
2022/01/01 03:41:56;;;;;;;33.05;12.93;;;13.90;62.00;;;;;;4991691;28;20417;-73
2022/01/01 03:44:22;;;;;;;24.27;11.52;;;13.90;61.80;;;;;;4991800;28;20394;-72
2022/01/01 03:46:47;;;;;;;25.33;11.52;;;13.80;63.00;;;;;;4991639;28;20477;-71
2022/01/01 03:49:13;;;;;;;25.25;12.05;;;13.70;62.50;;;;;;4991725;28;20818;-74
2022/01/01 03:51:41;;;;;;;22.80;10.70;;;13.80;61.60;;;;;;4991967;28;20937;-73
2022/01/01 03:54:06;;;;;;;22.63;10.35;;;13.80;60.60;;;;;;4991586;28;20517;-72
2022/01/01 03:56:32;;;;;;;21.98;10.48;;;13.90;60.60;;;;;;4992312;28;20951;-73
2022/01/01 03:58:58;;;;;;;25.67;10.50;;;13.80;60.50;;;;;;4991780;28;20472;-71
2022/01/01 04:01:23;;;;;;;22.45;10.65;;;13.90;59.80;;;;;;4991688;28;20406;-71
2022/01/01 04:03:49;;;;;;;28.13;9.80;;;13.90;59.40;;;;;;4991776;28;20397;-72
2022/01/01 04:06:14;;;;;;;25.23;9.53;;;13.80;60.10;;;;;;4990477;28;20893;-72
2022/01/01 04:08:40;;;;;;;29.60;10.53;;;13.80;60.00;;;;;;4991815;28;20394;-71
2022/01/01 04:11:06;;;;;;;23.45;10.13;;;13.90;60.00;;;;;;4991760;28;20391;-71
2022/01/01 04:13:31;;;;;;;26.20;9.98;;;13.80;59.90;;;;;;4991899;28;20386;-73
2022/01/01 04:15:57;;;;;;;29.70;9.80;;;13.80;59.60;;;;;;4991417;28;20429;-72
2022/01/01 04:18:29;;;;;;;21.83;9.60;;;13.80;59.90;;;;;;4991201;28;20884;-71
2022/01/01 04:20:54;;;;;;;19.92;9.10;;;13.90;59.80;;;;;;4992038;28;20469;-72
2022/01/01 04:23:20;;;;;;;23.70;9.75;;;13.80;60.50;;;;;;4991886;28;20986;-72
2022/01/01 04:25:47;;;;;;;24.03;10.10;;;13.80;60.30;;;;;;4993632;28;20390;-72
2022/01/01 04:28:13;;;;;;;23.30;10.18;;;13.90;60.50;;;;;;4993150;28;20441;-72
2022/01/01 04:30:39;;;;;;;26.42;10.60;;;13.90;60.90;;;;;;4994414;28;20447;-72
2022/01/01 04:33:05;;;;;;;22.87;10.40;;;13.80;60.90;;;;;;4995126;28;20806;-73
2022/01/01 04:35:30;;;;;;;25.37;11.20;;;13.80;62.30;;;;;;4994923;28;20808;-72
2022/01/01 04:37:56;;;;;;;21.40;10.55;;;13.80;61.80;;;;;;4993683;28;20547;-72
2022/01/01 04:40:22;;;;;;;26.88;11.65;;;13.80;62.10;;;;;;4994930;28;20394;-70
2022/01/01 04:42:48;;;;;;;23.45;10.63;;;13.80;62.20;;;;;;4994781;28;20405;-74
2022/01/01 04:45:14;;;;;;;20.80;11.05;;;13.90;62.00;;;;;;4994825;28;20413;-71
2022/01/01 04:47:39;;;;;;;27.67;11.60;;;13.90;62.50;;;;;;4994674;28;20868;-74
2022/01/01 04:50:05;;;;;;;24.15;12.10;;;13.90;62.20;;;;;;4994850;28;20391;-73
2022/01/01 04:52:31;;;;;;;26.05;11.60;;;13.80;62.40;;;;;;4994831;28;20759;-72
2022/01/01 04:54:57;;;;;;;25.20;11.43;;;13.80;62.50;;;;;;4994984;28;20470;-72
2022/01/01 04:57:29;;;;;;;20.13;11.30;;;13.90;62.00;;;;;;4995761;28;20453;-71
2022/01/01 04:59:54;;;;;;;23.98;11.63;;;13.80;62.50;;;;;;4997580;28;20383;-74
2022/01/01 05:02:20;;;;;;;22.50;11.30;;;13.90;62.00;;;;;;4998892;28;20974;-72
2022/01/01 05:04:45;;;;;;;22.05;10.60;;;13.90;60.80;;;;;;5003024;28;20744;-71
2022/01/01 05:07:11;;;;;;;24.48;10.52;;;13.90;60.80;;;;;;4999591;28;20386;-72
2022/01/01 05:09:36;;;;;;;24.50;10.10;;;13.90;61.10;;;;;;4996081;28;20386;-72
2022/01/01 05:12:02;;;;;;;22.00;9.67;;;13.90;61.20;;;;;;4994917;28;20398;-72
2022/01/01 05:14:30;;;;;;;26.20;10.23;;;13.90;60.60;;;;;;4994443;28;20390;-72
2022/01/01 05:16:56;;;;;;;26.83;9.98;;;13.80;61.30;;;;;;4993067;28;20390;-72
2022/01/01 05:19:22;;;;;;;22.88;9.50;;;13.90;60.30;;;;;;4994137;28;20386;-72
2022/01/01 05:21:47;;;;;;;21.42;9.80;;;13.80;60.70;;;;;;4994281;28;20420;-72
2022/01/01 05:24:18;;;;;;;24.23;9.77;;;13.80;61.20;;;;;;4994001;28;20406;-72
2022/01/01 05:26:44;;;;;;;26.23;9.55;;;13.90;60.60;;;;;;4994047;28;20410;-71
2022/01/01 05:29:09;;;;;;;20.85;9.80;;;13.90;60.10;;;;;;4993997;28;20473;-71
2022/01/01 05:31:35;;;;;;;24.92;9.50;;;13.90;60.40;;;;;;4994169;28;20473;-72
2022/01/01 05:34:01;;;;;;;26.43;9.37;;;13.90;60.70;;;;;;4994118;28;20383;-73
2022/01/01 05:36:27;;;;;;;20.80;8.90;;;13.90;60.20;;;;;;4994432;28;20414;-71
2022/01/01 05:38:53;;;;;;;18.77;8.68;;;13.80;60.20;;;;;;4994383;28;20386;-73
2022/01/01 05:41:19;;;;;;;16.20;8.43;;;13.80;59.80;;;;;;4995971;28;20391;-72
2022/01/01 05:43:44;;;;;;;20.20;8.27;;;13.80;59.50;;;;;;4994752;28;20451;-71
2022/01/01 05:46:10;;;;;;;24.87;8.90;;;13.80;60.20;;;;;;4993916;28;20470;-72
2022/01/01 05:48:38;;;;;;;22.20;8.65;;;13.90;60.00;;;;;;4994020;28;20420;-71
2022/01/01 05:51:04;;;;;;;15.73;7.63;;;13.90;59.10;;;;;;4994279;28;20405;-74
2022/01/01 05:53:30;;;;;;;23.92;8.02;;;13.80;59.10;;;;;;4994020;28;20481;-72
2022/01/01 05:55:55;;;;;;;18.73;8.10;;;13.80;59.50;;;;;;4993578;28;20422;-71
2022/01/01 05:58:21;;;;;;;18.67;7.83;;;13.80;60.00;;;;;;4993567;28;20469;-72
2022/01/01 06:00:46;;;;;;;21.93;7.83;;;13.80;60.00;;;;;;4993669;28;20422;-72
2022/01/01 06:03:13;;;;;;;20.00;8.03;;;13.80;60.00;;;;;;4993501;28;20423;-74
2022/01/01 06:05:38;;;;;;;18.77;8.60;;;13.90;58.90;;;;;;4996247;28;20395;-71
2022/01/01 06:08:04;;;;;;;11.32;7.00;;;13.90;58.60;;;;;;4997886;28;20512;-74
2022/01/01 06:10:30;;;;;;;20.38;8.45;;;13.90;58.20;;;;;;4997013;28;20378;-72
2022/01/01 06:12:56;;;;;;;18.05;8.35;;;13.80;58.40;;;;;;4993925;28;20492;-72
2022/01/01 06:15:22;;;;;;;20.15;7.82;;;13.80;59.20;;;;;;4993343;28;20863;-73
2022/01/01 06:17:48;;;;;;;13.88;7.50;;;13.70;59.90;;;;;;4993071;28;20473;-73
2022/01/01 06:20:14;;;;;;;17.10;7.47;;;13.70;60.50;;;;;;4993059;28;20533;-72
2022/01/01 06:22:40;;;;;;;15.48;7.28;;;13.70;59.50;;;;;;4993299;28;20468;-71
2022/01/01 06:25:06;;;;;;;19.27;8.30;;;13.70;58.80;;;;;;4992888;28;20397;-71
2022/01/01 06:27:31;;;;;;;15.88;7.40;;;13.70;59.50;;;;;;4992732;28;20776;-71
2022/01/01 06:29:57;;;;;;;16.97;7.30;;;13.70;59.50;;;;;;4993117;28;20397;-72
2022/01/01 06:32:22;;;;;;;18.10;7.87;;;13.70;58.90;;;;;;4992790;28;20883;-74
2022/01/01 06:34:48;;;;;;;13.93;6.40;;;13.80;58.10;;;;;;4992654;28;20791;-71
2022/01/01 06:37:14;;;;;;;20.85;7.28;;;13.80;57.50;;;;;;4992869;28;20748;-73
2022/01/01 06:39:39;;;;;;;15.93;7.28;;;13.70;58.20;;;;;;5007968;28;20402;-73
2022/01/01 06:42:05;;;;;;;15.50;7.10;;;13.70;58.70;;;;;;4992649;28;20410;-74
2022/01/01 06:44:31;;;;;;;22.30;7.70;;;13.70;58.20;;;;;;4992459;28;20395;-72
2022/01/01 06:46:56;;;;;;;14.75;6.85;;;13.80;57.60;;;;;;4992484;28;20461;-74
2022/01/01 06:49:22;;;;;;;17.95;7.38;;;13.80;57.80;;;;;;4992757;28;20387;-71
2022/01/01 06:51:47;;;;;;;16.50;6.50;;;13.70;58.40;;;;;;4992719;28;20521;-71
2022/01/01 06:54:13;;;;;;;21.90;7.10;;;13.70;58.80;;;;;;4992359;28;20461;-72
2022/01/01 06:56:39;;;;;;;16.70;6.77;;;13.80;57.80;;;;;;4991394;28;20399;-72
2022/01/01 06:59:04;;;;;;;17.53;7.10;;;13.90;56.80;;;;;;4992570;28;20398;-72
2022/01/01 07:01:30;;;;;;;16.67;6.85;;;13.90;56.70;;;;;;4992242;28;20417;-72
2022/01/01 07:03:56;;;;;;;11.75;6.90;;;13.80;57.00;;;;;;4992346;28;20382;-72
2022/01/01 07:06:21;;;;;;;16.42;6.60;;;13.80;57.20;;;;;;4992090;28;20409;-72
2022/01/01 07:08:47;;;;;;;15.75;7.00;;;13.80;57.10;;;;;;4992523;28;20383;-72
2022/01/01 07:11:12;;;;;;;22.77;7.13;;;13.70;57.50;;;;;;4992294;28;20434;-73
2022/01/01 07:13:38;;;;;;;15.70;6.80;;;13.70;57.40;;;;;;4992678;28;20901;-73
2022/01/01 07:16:05;;;;;;;18.40;6.53;;;13.70;57.50;;;;;;4992140;28;20383;-72
2022/01/01 07:18:31;;;;;;;14.32;6.30;;;13.70;57.20;;;;;;4991691;28;20745;-72
2022/01/01 07:20:56;;;;;;;17.37;6.23;;;13.70;57.70;;;;;;4992094;28;20383;-72
2022/01/01 07:23:22;;;;;;;14.03;6.23;;;13.70;56.60;;;;;;4991885;28;20484;-74
2022/01/01 07:25:47;;;;;;;14.10;5.30;;;13.80;56.10;;;;;;4992298;28;20406;-73
2022/01/01 07:28:16;;;;;;;13.73;6.17;;;13.80;55.40;;;;;;4993436;28;20453;-73
2022/01/01 07:30:42;;;;;;;19.10;5.85;;;13.80;55.80;;;;;;4992172;28;20386;-72
2022/01/01 07:33:10;;;;;;;11.57;5.22;;;13.80;55.30;;;;;;4991975;28;20395;-73
2022/01/01 07:35:37;;;;;;;18.10;6.13;;;13.80;55.00;;;;;;4992156;28;20918;-73
2022/01/01 07:38:03;;;;;;;10.52;4.85;;;13.80;55.20;;;;;;4991760;28;20895;-73
2022/01/01 07:40:30;;;;;;;17.52;5.95;;;13.80;54.70;;;;;;4992058;28;20477;-74
2022/01/01 07:42:56;;;;;;;12.65;4.75;;;13.80;54.60;;;;;;4992107;28;20434;-72
2022/01/01 07:45:22;;;;;;;18.27;5.40;;;13.70;54.00;;;;;;4991956;28;20387;-71
2022/01/01 07:47:47;;;;;;;14.18;5.40;;;13.80;53.50;;;;;;4991872;28;20390;-70
2022/01/01 07:50:13;;;;;;;16.10;5.20;;;13.80;53.90;;;;;;4991931;28;20743;-73
2022/01/01 07:52:40;;;;;;;16.10;5.33;;;13.90;52.80;;;;;;4992694;28;20394;-72
2022/01/01 07:55:06;;;;;;;15.18;4.90;;;13.90;52.40;;;;;;4992183;28;20748;-71
2022/01/01 07:57:32;;;;;;;18.77;5.70;;;13.90;52.00;;;;;;4997036;28;20449;-70
2022/01/01 07:59:57;;;;;;;13.95;5.10;;;13.90;51.80;;;;;;4994710;28;20382;-73
2022/01/01 08:02:23;;;;;;;13.27;4.95;;;13.90;51.80;;;;;;4994979;28;20445;-73
2022/01/01 08:04:48;;;;;;;16.53;5.70;;;14.00;51.50;;;;;;5005416;28;20783;-72
2022/01/01 08:07:14;;;;;;;13.90;5.00;;;14.00;51.30;;;;;;5003243;28;20397;-71
2022/01/01 08:09:39;;;;;;;10.40;4.70;;;14.00;51.00;;;;;;4995436;28;20390;-72
2022/01/01 08:12:07;;;;;;;14.30;5.73;;;14.10;50.80;;;;;;4995524;28;20390;-74
2022/01/01 08:14:33;;;;;;;13.27;4.80;;;14.10;50.50;;;;;;4995273;28;20506;-73
2022/01/01 08:17:00;;;;;;;15.60;4.70;;;14.10;50.30;;;;;;4993585;28;20391;-73
2022/01/01 08:19:26;;;;;;;11.02;5.10;;;14.00;50.60;;;;;;4995182;28;20382;-71
2022/01/01 08:21:52;;;;;;;15.90;4.75;;;13.90;51.30;;;;;;4995189;28;20405;-72
2022/01/01 08:24:18;;;;;;;12.77;4.80;;;14.00;51.10;;;;;;5009834;28;20914;-73
2022/01/01 08:26:44;;;;;;;14.13;4.55;;;14.00;50.60;;;;;;4994583;28;20382;-72
2022/01/01 08:29:10;;;;;;;16.70;4.80;;;14.00;50.10;;;;;;4995038;28;20868;-73
2022/01/01 08:31:35;;;;;;;13.10;4.65;;;14.00;49.80;;;;;;4995290;28;20398;-73
2022/01/01 08:34:01;;;;;;;14.67;4.10;;;14.00;49.40;;;;;;4994563;28;20464;-73
2022/01/01 08:36:26;;;;;;;12.95;4.55;;;14.10;49.40;;;;;;4994758;28;20390;-72
2022/01/01 08:38:52;;;;;;;11.23;3.78;;;14.20;48.50;;;;;;4994517;28;20448;-72
2022/01/01 08:41:17;;;;;;;12.10;3.93;;;14.10;48.60;;;;;;4994544;28;20445;-71
2022/01/01 08:43:43;;;;;;;12.40;4.50;;;14.20;48.50;;;;;;4994566;28;20383;-71
2022/01/01 08:46:09;;;;;;;14.40;4.33;;;14.10;49.10;;;;;;4994456;28;20402;-74
2022/01/01 08:48:34;;;;;;;13.10;4.18;;;14.20;48.20;;;;;;4994631;28;20391;-72
2022/01/01 08:51:15;;;;;;;11.57;4.78;;;14.30;46.90;;;;;;4993253;28;20821;-72
2022/01/01 08:53:42;;;;;;;13.97;4.63;;;14.30;47.00;;;;;;4994392;28;20394;-72
2022/01/01 08:56:07;;;;;;;11.93;4.40;;;14.20;47.80;;;;;;4994414;28;20406;-70
2022/01/01 08:58:34;;;;;;;11.60;3.88;;;14.20;47.60;;;;;;4994602;28;20895;-72
2022/01/01 09:01:00;;;;;;;15.23;4.70;;;14.20;47.60;;;;;;4994626;28;20907;-72
2022/01/01 09:03:25;;;;;;;14.05;4.50;;;14.30;47.60;;;;;;4994472;28;20614;-72
2022/01/01 09:05:51;;;;;;;11.50;4.10;;;14.30;47.30;;;;;;4994242;28;20740;-72
2022/01/01 09:08:16;;;;;;;12.07;4.22;;;14.30;47.40;;;;;;5010091;28;20740;-72
2022/01/01 09:10:42;;;;;;;11.30;4.90;;;14.50;47.30;;;;;;4994731;28;20418;-72
2022/01/01 09:13:08;;;;;;;9.17;4.70;;;14.60;45.80;;;;;;4995071;28;20454;-71
2022/01/01 09:15:33;;;;;;;15.88;4.65;;;14.70;45.30;;;;;;4994642;28;20465;-72
2022/01/01 09:17:59;;;;;;;12.65;4.40;;;14.80;44.80;;;;;;4993667;28;20485;-73
2022/01/01 09:20:24;;;;;;;15.60;5.60;;;14.80;44.20;;;;;;4994419;28;20461;-71
2022/01/01 09:22:50;;;;;;;13.63;4.60;;;14.80;44.60;;;;;;4994463;28;20422;-72
2022/01/01 09:25:15;;;;;;;13.93;4.40;;;14.90;44.50;;;;;;4993994;28;20417;-72
2022/01/01 09:27:41;;;;;;;13.37;4.60;;;14.90;43.60;;;;;;4993843;28;20822;-73
2022/01/01 09:30:07;;;;;;;10.20;4.07;;;15.10;42.90;;;;;;4993776;28;20383;-72
2022/01/01 09:32:34;;;;;;;14.32;4.82;;;15.10;43.00;;;;;;4993826;28;20512;-71
2022/01/01 09:35:01;;;;;;;13.82;4.40;;;15.10;43.00;;;;;;4993403;28;20389;-73
2022/01/01 09:37:29;;;;;;;12.85;4.00;;;14.90;43.00;;;;;;4991998;28;20425;-73
2022/01/01 09:39:56;;;;;;;10.45;4.22;;;14.80;42.90;;;;;;4993792;28;20405;-72
2022/01/01 09:42:22;;;;;;;13.73;5.35;;;14.90;43.10;;;;;;4993628;28;20517;-73
2022/01/01 09:44:49;;;;;;;10.75;4.40;;;14.90;43.30;;;;;;4993679;28;20387;-73
2022/01/01 09:47:15;;;;;;;12.88;4.13;;;14.90;43.30;;;;;;4993309;28;20470;-73
2022/01/01 09:49:41;;;;;;;11.48;4.10;;;15.00;42.70;;;;;;4993864;28;20420;-73
2022/01/01 09:52:09;;;;;;;14.40;4.32;;;15.10;42.70;;;;;;4994232;28;20405;-74
2022/01/01 09:54:35;;;;;;;11.73;4.00;;;15.10;42.30;;;;;;4993538;28;20822;-74
2022/01/01 09:57:00;;;;;;;13.32;4.13;;;15.20;41.80;;;;;;4992368;28;20394;-73
2022/01/01 09:59:26;;;;;;;14.47;4.13;;;15.30;40.90;;;;;;4994751;28;20390;-73
2022/01/01 10:01:51;;;;;;;12.25;4.43;;;15.40;40.00;;;;;;4979008;28;20924;-73
2022/01/01 10:04:18;;;;;;;13.30;4.03;;;15.40;40.10;;;;;;4973839;28;20802;-72
2022/01/01 10:06:59;;;;;;;14.50;4.85;;;15.50;40.00;;;;;;4973518;28;20392;-72
2022/01/01 10:09:31;;;;;;;12.97;4.50;;;15.60;39.70;;;;;;4973835;28;20430;-73
2022/01/01 10:11:56;;;;;;;13.90;4.97;;;15.50;39.30;;;;;;4973575;28;20395;-73
2022/01/01 10:14:43;;;;;;;11.93;4.50;;;15.50;39.60;;;;;;4973681;28;20430;-74
2022/01/01 10:17:17;;;;;;;10.93;4.45;;;15.60;40.00;;;;;;4973311;28;20403;-72
2022/01/01 10:19:43;;;;;;;8.10;3.60;;;15.60;38.90;;;;;;4973731;28;20391;-72
2022/01/01 10:22:14;;;;;;;10.43;3.70;;;15.80;38.40;;;;;;4973448;28;20412;-73
2022/01/01 10:27:45;;;;;;;11.50;3.80;;;15.80;38.30;;;;;;4973351;28;20384;-72
2022/01/01 10:30:40;;;;;;;9.23;4.60;;;15.70;38.40;;;;;;4973506;28;20412;-73
2022/01/01 10:33:12;;;;;;;12.37;4.40;;;15.80;38.60;;;;;;4972905;28;20761;-71
2022/01/01 10:35:52;;;;;;;11.10;3.80;;;15.80;37.70;;;;;;4973361;28;20484;-73
2022/01/01 10:38:27;;;;;;;13.15;4.35;;;15.90;37.60;;;;;;4973174;28;20439;-72
2022/01/01 10:41:04;;;;;;;8.68;3.78;;;16.00;37.50;;;;;;4973141;28;20391;-70
2022/01/01 10:43:41;;;;;;;8.30;3.67;;;16.10;36.80;;;;;;4972891;28;20778;-73
2022/01/01 10:46:11;;;;;;;12.27;3.83;;;16.00;36.70;;;;;;4974492;28;20403;-73
2022/01/01 10:51:02;;;;;;;11.03;3.70;;;16.00;36.60;;;;;;4974017;28;20661;-72
2022/01/01 10:53:29;;;;;;;15.48;3.70;;;16.00;37.60;;;;;;4973748;28;20392;-72
2022/01/01 10:55:58;;;;;;;10.68;4.05;;;15.90;37.40;;;;;;4978103;28;20391;-73
2022/01/01 10:58:27;;;;;;;8.45;3.58;;;15.90;37.70;;;;;;4978874;28;20384;-74
2022/01/01 11:01:03;;;;;;;7.85;3.50;;;15.90;37.40;;;;;;4975963;28;20439;-73
2022/01/01 11:03:34;;;;;;;16.77;3.78;;;15.90;37.30;;;;;;4978499;28;20459;-73
2022/01/01 11:06:04;;;;;;;9.38;3.80;;;16.00;36.90;;;;;;4978756;28;20403;-72
2022/01/01 11:08:31;;;;;;;7.68;3.70;;;16.00;36.70;;;;;;4972431;28;20384;-73
2022/01/01 11:10:58;;;;;;;9.30;4.20;;;16.00;37.00;;;;;;4972453;28;20391;-70
2022/01/01 11:13:24;;;;;;;9.85;3.50;;;16.00;37.20;;;;;;4972571;28;20897;-72
2022/01/01 11:15:51;;;;;;;7.57;3.30;;;16.00;36.70;;;;;;4972651;28;20515;-73
2022/01/01 11:18:17;;;;;;;11.10;4.32;;;16.00;36.50;;;;;;4972474;28;20392;-71
2022/01/01 11:20:43;;;;;;;9.00;4.10;;;16.10;36.60;;;;;;4972948;28;20432;-73
2022/01/01 11:23:11;;;;;;;12.75;3.97;;;16.10;36.70;;;;;;4972425;28;20423;-72
2022/01/01 11:25:39;;;;;;;9.15;3.90;;;16.10;36.80;;;;;;4973221;28;20400;-73
2022/01/01 11:28:07;;;;;;;10.07;4.50;;;16.20;36.70;;;;;;4987367;28;20401;-72
2022/01/01 11:30:36;;;;;;;9.48;4.40;;;16.20;36.80;;;;;;4973038;28;20391;-72
2022/01/01 11:33:09;;;;;;;14.10;4.80;;;16.30;36.50;;;;;;4972471;28;20465;-72
2022/01/01 11:35:38;;;;;;;8.65;4.10;;;16.40;36.50;;;;;;4972874;28;20387;-72
2022/01/01 11:38:11;;;;;;;10.27;4.30;;;16.50;36.30;;;;;;4971052;28;20392;-73
2022/01/01 11:40:45;;;;;;;12.45;4.10;;;16.50;36.00;;;;;;4972771;28;20960;-74
2022/01/01 11:43:53;;;;;;;8.60;4.10;;;16.60;35.70;;;;;;4971708;28;20435;-73
2022/01/01 11:46:24;;;;;;;9.30;4.00;;;16.60;35.80;;;;;;4969754;28;20863;-73
2022/01/01 11:48:57;;;;;;;9.40;3.92;;;16.60;35.10;;;;;;4969834;28;20498;-72
2022/01/01 11:51:38;;;;;;;8.10;3.60;;;16.60;34.80;;;;;;4971245;28;20400;-72
2022/01/01 11:54:07;;;;;;;6.72;3.35;;;16.60;34.70;;;;;;4972191;28;20396;-73
2022/01/01 11:56:50;;;;;;;6.97;3.53;;;16.60;34.50;;;;;;4971745;28;20403;-71
2022/01/01 11:59:30;;;;;;;10.37;3.63;;;16.60;34.80;;;;;;4972233;28;20392;-72
2022/01/01 12:02:02;;;;;;;7.60;3.20;;;16.50;34.80;;;;;;4971886;28;20773;-74
2022/01/01 12:04:41;;;;;;;10.25;3.58;;;16.40;34.90;;;;;;4971819;28;20393;-72
2022/01/01 12:07:28;;;;;;;7.55;3.50;;;16.40;35.20;;;;;;4972096;28;20392;-73
2022/01/01 12:10:06;;;;;;;11.18;3.50;;;16.40;35.30;;;;;;4972302;28;20392;-73
2022/01/01 12:12:51;;;;;;;11.15;3.80;;;16.50;35.10;;;;;;4972764;28;20475;-73
2022/01/01 12:15:27;;;;;;;6.97;3.40;;;16.60;35.00;;;;;;4973796;28;20392;-73
2022/01/01 12:18:01;;;;;;;9.10;3.10;;;16.60;34.80;;;;;;4972684;28;20419;-72
2022/01/01 12:20:29;;;;;;;9.70;3.60;;;16.70;34.80;;;;;;4972926;28;20905;-73
2022/01/01 12:22:55;;;;;;;6.93;3.30;;;16.60;34.70;;;;;;4972173;28;21064;-74
2022/01/01 12:25:24;;;;;;;14.25;3.85;;;16.50;35.30;;;;;;4972002;28;20403;-72
2022/01/01 12:27:52;;;;;;;7.63;3.30;;;16.60;35.40;;;;;;4972917;28;20761;-73
2022/01/01 12:30:34;;;;;;;8.40;3.25;;;16.60;34.90;;;;;;4972722;28;20747;-72
2022/01/01 12:33:00;;;;;;;7.47;3.60;;;16.50;35.30;;;;;;4972977;28;20427;-72
2022/01/01 12:35:53;;;;;;;7.38;3.60;;;16.40;35.70;;;;;;4973844;28;20396;-73
2022/01/01 12:38:27;;;;;;;9.40;3.63;;;16.40;36.60;;;;;;4970797;28;20415;-73
2022/01/01 12:41:08;;;;;;;8.30;3.70;;;16.40;35.70;;;;;;4971498;28;20486;-72
2022/01/01 12:43:46;;;;;;;7.07;3.83;;;16.30;36.00;;;;;;4971414;28;20439;-71
2022/01/01 12:46:13;;;;;;;8.15;3.60;;;16.30;36.50;;;;;;4971845;28;20384;-72